Аэропорт: Богашево. Томск

ICAO: UNTT

METAR:
2019-09-21 16:00:00
UNTT 211600Z 24003MPS CAVOK 06/02 Q1021 NOSIG RMK QFE751
METAR:
2019-09-21 14:00:00
TAF UNTT 211400Z 2115/2124 22003MPS 9999 SCT030 TEMPO 2118/2124 3100 BR